createdAt,value
2022-10-17T00:00:44.686Z,18.20
2022-10-17T00:03:11.601Z,18.30
2022-10-17T00:05:42.975Z,18.20
2022-10-17T00:08:11.779Z,18.30
2022-10-17T00:10:40.046Z,18.30
2022-10-17T00:13:07.424Z,18.30
2022-10-17T00:15:34.572Z,18.30
2022-10-17T00:18:01.754Z,18.30
2022-10-17T00:20:30.546Z,18.30
2022-10-17T00:22:57.951Z,18.30
2022-10-17T00:25:24.764Z,18.30
2022-10-17T00:27:51.564Z,18.30
2022-10-17T00:30:18.503Z,18.30
2022-10-17T00:32:45.373Z,18.40
2022-10-17T00:35:12.210Z,18.30
2022-10-17T00:37:39.068Z,18.30
2022-10-17T00:40:07.339Z,18.40
2022-10-17T00:42:34.236Z,18.40
2022-10-17T00:45:07.592Z,18.40
2022-10-17T00:47:36.141Z,18.40
2022-10-17T00:50:05.026Z,18.40
2022-10-17T00:52:33.129Z,18.40
2022-10-17T00:55:20.561Z,18.50
2022-10-17T00:57:48.218Z,18.50
2022-10-17T01:00:17.427Z,18.50
2022-10-17T01:02:44.881Z,18.50
2022-10-17T01:05:12.589Z,18.50
2022-10-17T01:07:41.516Z,18.50
2022-10-17T01:10:09.346Z,18.50
2022-10-17T01:12:49.445Z,18.50
2022-10-17T01:15:34.705Z,18.50
2022-10-17T01:18:30.427Z,18.50
2022-10-17T01:21:15.798Z,18.50
2022-10-17T01:24:19.139Z,18.50
2022-10-17T01:27:04.267Z,18.50
2022-10-17T01:29:58.953Z,18.50
2022-10-17T01:33:05.427Z,18.50
2022-10-17T01:36:04.798Z,18.50
2022-10-17T01:38:57.442Z,18.40
2022-10-17T01:41:32.949Z,18.50
2022-10-17T01:44:03.655Z,18.40
2022-10-17T01:46:37.502Z,18.40
2022-10-17T01:49:06.723Z,18.40
2022-10-17T01:52:08.352Z,18.40
2022-10-17T01:54:55.697Z,18.40
2022-10-17T01:57:33.357Z,18.40
2022-10-17T02:00:01.409Z,18.40
2022-10-17T02:02:29.116Z,18.40
2022-10-17T02:04:57.389Z,18.40
2022-10-17T02:07:24.368Z,18.40
2022-10-17T02:09:51.189Z,18.40
2022-10-17T02:12:36.611Z,18.40
2022-10-17T02:15:24.537Z,18.40
2022-10-17T02:18:16.138Z,18.50
2022-10-17T02:20:55.159Z,18.40
2022-10-17T02:23:36.042Z,18.40
2022-10-17T02:26:15.729Z,18.40
2022-10-17T02:28:47.404Z,18.40
2022-10-17T02:31:19.689Z,18.40
2022-10-17T02:33:58.555Z,18.40
2022-10-17T02:36:30.752Z,18.40
2022-10-17T02:38:58.833Z,18.40
2022-10-17T02:41:26.133Z,18.40
2022-10-17T02:43:55.622Z,18.40
2022-10-17T02:46:24.448Z,18.40
2022-10-17T02:49:01.964Z,18.40
2022-10-17T02:51:53.136Z,18.40
2022-10-17T02:54:34.552Z,18.40
2022-10-17T02:57:07.932Z,18.40
2022-10-17T02:59:37.083Z,18.30
2022-10-17T03:02:06.219Z,18.30
2022-10-17T03:04:34.134Z,18.30
2022-10-17T03:07:00.961Z,18.30
2022-10-17T03:09:27.802Z,18.30
2022-10-17T03:11:54.670Z,18.30
2022-10-17T03:14:21.487Z,18.30
2022-10-17T03:16:48.295Z,18.30
2022-10-17T03:19:15.097Z,18.30
2022-10-17T03:21:41.952Z,18.30
2022-10-17T03:24:08.770Z,18.30
2022-10-17T03:26:35.726Z,18.30
2022-10-17T03:29:03.138Z,18.30
2022-10-17T03:31:29.997Z,18.40
2022-10-17T03:33:56.966Z,18.30
2022-10-17T03:36:23.903Z,18.30
2022-10-17T03:38:54.680Z,18.40
2022-10-17T03:41:21.752Z,18.40
2022-10-17T03:43:48.559Z,18.30
2022-10-17T03:46:15.514Z,18.30
2022-10-17T03:48:42.338Z,18.30
2022-10-17T03:51:09.867Z,18.30
2022-10-17T03:53:36.813Z,18.30
2022-10-17T03:56:15.602Z,18.30
2022-10-17T03:58:42.913Z,18.30
2022-10-17T04:01:12.472Z,18.30
2022-10-17T04:03:39.961Z,18.30
2022-10-17T04:06:07.038Z,18.30
2022-10-17T04:08:34.930Z,18.30
2022-10-17T04:11:03.578Z,18.30
2022-10-17T04:13:31.009Z,18.30
2022-10-17T04:16:11.087Z,18.30
2022-10-17T04:18:37.889Z,18.30
2022-10-17T04:21:05.726Z,18.30
2022-10-17T04:23:32.857Z,18.30
2022-10-17T04:26:00.839Z,18.30
2022-10-17T04:28:28.641Z,18.30
2022-10-17T04:31:00.291Z,18.30
2022-10-17T04:33:27.600Z,18.30
2022-10-17T04:36:01.201Z,18.30
2022-10-17T04:38:29.273Z,18.30
2022-10-17T04:41:04.764Z,18.30
2022-10-17T04:43:32.560Z,18.30
2022-10-17T04:46:00.219Z,18.30
2022-10-17T04:48:28.477Z,18.30
2022-10-17T04:51:00.997Z,18.30
2022-10-17T04:53:28.804Z,18.30
2022-10-17T04:55:55.628Z,18.30
2022-10-17T04:58:22.654Z,18.30
2022-10-17T05:00:49.529Z,18.30
2022-10-17T05:03:16.816Z,18.30
2022-10-17T05:05:43.977Z,18.30
2022-10-17T05:08:11.631Z,18.30
2022-10-17T05:10:39.765Z,18.30
2022-10-17T05:13:07.335Z,18.30
2022-10-17T05:15:34.700Z,18.30
2022-10-17T05:18:01.724Z,18.30
2022-10-17T05:20:28.796Z,18.30
2022-10-17T05:22:55.745Z,18.20
2022-10-17T05:25:22.532Z,18.20
2022-10-17T05:27:49.332Z,18.20
2022-10-17T05:30:16.174Z,18.20
2022-10-17T05:32:42.962Z,18.10
2022-10-17T05:35:09.785Z,18.20
2022-10-17T05:37:36.688Z,18.10
2022-10-17T05:40:04.437Z,18.10
2022-10-17T05:42:31.670Z,18.10
2022-10-17T05:44:58.777Z,18.10
2022-10-17T05:47:25.556Z,18.00
2022-10-17T05:49:52.717Z,18.10
2022-10-17T05:52:19.642Z,18.00
2022-10-17T05:54:46.502Z,18.00
2022-10-17T05:57:13.372Z,18.00
2022-10-17T05:59:40.179Z,18.00
2022-10-17T06:02:07.166Z,18.00
2022-10-17T06:04:34.064Z,17.90
2022-10-17T06:07:00.851Z,18.00
2022-10-17T06:09:28.825Z,17.90
2022-10-17T06:11:55.603Z,17.90
2022-10-17T06:14:22.400Z,17.90
2022-10-17T06:16:49.193Z,17.90
2022-10-17T06:19:16.131Z,18.00
2022-10-17T06:21:42.995Z,17.90
2022-10-17T06:24:09.921Z,17.90
2022-10-17T06:26:36.714Z,17.90
2022-10-17T06:29:03.995Z,17.90
2022-10-17T06:31:30.816Z,17.90
2022-10-17T06:33:57.622Z,17.90
2022-10-17T06:36:24.519Z,17.90
2022-10-17T06:38:51.525Z,17.90
2022-10-17T06:41:19.500Z,18.00
2022-10-17T06:43:47.230Z,17.90
2022-10-17T06:46:16.339Z,18.00
2022-10-17T06:48:43.424Z,17.90
2022-10-17T06:51:11.481Z,17.90
2022-10-17T06:53:40.081Z,17.90
2022-10-17T06:56:08.222Z,17.90
2022-10-17T06:58:37.226Z,17.90
2022-10-17T07:01:10.126Z,17.90
2022-10-17T07:03:37.545Z,18.00
2022-10-17T07:06:05.080Z,18.00
2022-10-17T07:08:32.027Z,18.00
2022-10-17T07:10:59.132Z,18.00
2022-10-17T07:13:25.973Z,18.00
2022-10-17T07:15:52.892Z,18.00
2022-10-17T07:18:19.744Z,18.00
2022-10-17T07:20:54.094Z,18.00
2022-10-17T07:23:21.408Z,18.10
2022-10-17T07:25:48.221Z,18.10
2022-10-17T07:28:15.914Z,18.10
2022-10-17T07:30:42.794Z,18.10
2022-10-17T07:33:09.585Z,18.10
2022-10-17T07:35:40.845Z,18.10
2022-10-17T07:38:08.160Z,18.20
2022-10-17T07:40:34.979Z,18.20
2022-10-17T07:43:01.867Z,18.20
2022-10-17T07:45:28.727Z,18.20
2022-10-17T07:47:58.436Z,18.20
2022-10-17T07:50:25.488Z,18.20
2022-10-17T07:52:52.288Z,18.30
2022-10-17T07:55:19.180Z,18.30
2022-10-17T07:57:46.064Z,18.30
2022-10-17T08:00:13.123Z,18.30
2022-10-17T08:02:40.151Z,18.30
2022-10-17T08:05:07.297Z,18.40
2022-10-17T08:07:34.154Z,18.40
2022-10-17T08:10:00.990Z,18.40
2022-10-17T08:12:28.210Z,18.40
2022-10-17T08:14:55.235Z,18.50
2022-10-17T08:17:22.100Z,18.50
2022-10-17T08:19:48.873Z,18.50
2022-10-17T08:22:15.682Z,18.50
2022-10-17T08:24:43.019Z,18.50
2022-10-17T08:27:13.791Z,18.50
2022-10-17T08:29:40.990Z,18.50
2022-10-17T08:32:09.938Z,18.50
2022-10-17T08:34:37.090Z,18.60
2022-10-17T08:37:04.140Z,18.60
2022-10-17T08:39:32.062Z,18.60
2022-10-17T08:42:16.770Z,18.70
2022-10-17T08:45:02.004Z,18.70
2022-10-17T08:47:36.324Z,18.70
2022-10-17T08:50:06.904Z,18.70
2022-10-17T08:52:45.197Z,18.80
2022-10-17T08:55:44.465Z,18.80
2022-10-17T08:58:23.132Z,18.80
2022-10-17T09:01:03.485Z,18.80
2022-10-17T09:04:01.239Z,18.80
2022-10-17T09:06:33.351Z,18.90
2022-10-17T09:09:18.620Z,18.90
2022-10-17T09:11:55.254Z,18.90
2022-10-17T09:14:34.018Z,18.90
2022-10-17T09:17:19.011Z,18.90
2022-10-17T09:20:03.218Z,18.90
2022-10-17T09:22:37.853Z,18.90
2022-10-17T09:25:11.059Z,18.90
2022-10-17T09:28:02.541Z,18.90
2022-10-17T09:30:50.535Z,18.90
2022-10-17T09:33:35.881Z,18.90
2022-10-17T09:36:21.278Z,18.90
2022-10-17T09:38:52.808Z,18.90
2022-10-17T09:41:46.922Z,18.90
2022-10-17T09:44:19.213Z,18.80
2022-10-17T09:47:11.228Z,18.80
2022-10-17T09:49:41.577Z,18.80
2022-10-17T09:52:18.156Z,18.80
2022-10-17T09:55:01.035Z,18.80
2022-10-17T09:57:28.310Z,18.80
2022-10-17T10:00:01.679Z,18.80
2022-10-17T10:02:31.516Z,18.80
2022-10-17T10:05:07.470Z,18.80
2022-10-17T10:07:39.204Z,18.80
2022-10-17T10:10:24.118Z,18.80
2022-10-17T10:13:17.144Z,18.80
2022-10-17T10:15:46.260Z,18.80
2022-10-17T10:18:25.317Z,18.80
2022-10-17T10:21:14.390Z,18.80
2022-10-17T10:23:44.097Z,18.70
2022-10-17T10:26:27.137Z,18.70
2022-10-17T10:29:05.274Z,18.70
2022-10-17T10:31:39.960Z,18.70
2022-10-17T10:34:25.755Z,18.70
2022-10-17T10:37:01.082Z,18.70
2022-10-17T10:39:33.480Z,18.80
2022-10-17T10:42:02.332Z,18.80
2022-10-17T10:44:31.570Z,18.80
2022-10-17T10:47:17.310Z,18.80
2022-10-17T10:49:45.040Z,18.80
2022-10-17T10:52:42.563Z,18.80
2022-10-17T10:55:23.144Z,18.80
2022-10-17T10:57:53.399Z,18.80
2022-10-17T11:00:24.671Z,18.80
2022-10-17T11:03:03.951Z,18.70
2022-10-17T11:06:12.507Z,18.80
2022-10-17T11:08:48.355Z,18.80
2022-10-17T11:11:32.696Z,18.80
2022-10-17T11:14:18.805Z,18.80
2022-10-17T11:16:53.232Z,18.90
2022-10-17T11:19:35.682Z,18.80
2022-10-17T11:22:15.600Z,18.90
2022-10-17T11:25:27.090Z,18.90
2022-10-17T11:27:53.899Z,18.90
2022-10-17T11:30:23.859Z,18.90
2022-10-17T11:32:57.966Z,19.00
2022-10-17T11:35:29.211Z,19.00
2022-10-17T11:38:07.925Z,19.00
2022-10-17T11:40:38.709Z,19.00
2022-10-17T11:43:16.409Z,19.00
2022-10-17T11:45:47.561Z,19.00
2022-10-17T11:48:38.538Z,19.00
2022-10-17T11:54:13.652Z,19.00
2022-10-17T11:56:54.070Z,19.00
2022-10-17T12:00:00.274Z,19.00
2022-10-17T12:02:51.162Z,19.00
2022-10-17T12:05:41.204Z,19.00
2022-10-17T12:08:20.907Z,19.00
2022-10-17T12:11:03.236Z,19.00
2022-10-17T12:13:30.391Z,19.00
2022-10-17T12:16:18.283Z,19.00
2022-10-17T12:18:46.286Z,19.00
2022-10-17T12:21:13.382Z,19.00
2022-10-17T12:23:41.292Z,19.00
2022-10-17T12:26:10.403Z,19.00
2022-10-17T12:28:44.547Z,19.00
2022-10-17T12:31:17.583Z,19.00
2022-10-17T12:33:53.084Z,19.00
2022-10-17T12:36:22.898Z,19.00
2022-10-17T12:38:52.549Z,19.00
2022-10-17T12:41:38.240Z,19.00
2022-10-17T12:44:14.566Z,19.00
2022-10-17T12:46:45.099Z,18.90
2022-10-17T12:49:39.463Z,18.90
2022-10-17T12:52:15.087Z,18.90
2022-10-17T12:54:59.627Z,18.90
2022-10-17T12:57:27.408Z,18.90
2022-10-17T12:59:57.871Z,18.90
2022-10-17T13:02:28.439Z,18.90
2022-10-17T13:05:11.444Z,18.80
2022-10-17T13:07:42.613Z,18.80
2022-10-17T13:10:21.217Z,18.80
2022-10-17T13:12:50.068Z,18.80
2022-10-17T13:15:19.412Z,18.80
2022-10-17T13:17:54.839Z,18.80
2022-10-17T13:20:28.978Z,18.80
2022-10-17T13:22:58.704Z,18.80
2022-10-17T13:25:27.163Z,18.80
2022-10-17T13:28:06.600Z,18.80
2022-10-17T13:30:35.413Z,18.80
2022-10-17T13:33:03.257Z,18.80
2022-10-17T13:38:29.455Z,18.80
2022-10-17T13:41:05.815Z,18.80
2022-10-17T13:43:43.440Z,18.80
2022-10-17T13:46:37.398Z,18.80
2022-10-17T13:49:28.114Z,18.80
2022-10-17T13:51:56.206Z,18.80
2022-10-17T13:54:44.821Z,18.80
2022-10-17T13:57:29.396Z,18.80
2022-10-17T14:00:08.399Z,18.80
2022-10-17T14:02:38.307Z,18.80
2022-10-17T14:05:17.712Z,18.80
2022-10-17T14:08:16.803Z,18.80
2022-10-17T14:10:44.828Z,18.80
2022-10-17T14:13:23.994Z,18.80
2022-10-17T14:15:51.764Z,18.80
2022-10-17T14:18:24.008Z,18.80
2022-10-17T14:23:45.000Z,18.80
2022-10-17T14:26:21.521Z,18.80
2022-10-17T14:28:51.739Z,18.80
2022-10-17T14:31:33.872Z,18.70
2022-10-17T14:34:02.266Z,18.70
2022-10-17T14:36:38.335Z,18.70
2022-10-17T14:39:12.017Z,18.70
2022-10-17T14:41:44.733Z,18.70
2022-10-17T14:44:27.136Z,18.70
2022-10-17T14:47:30.871Z,18.70
2022-10-17T14:50:05.294Z,18.70
2022-10-17T14:52:32.787Z,18.70
2022-10-17T14:55:12.093Z,18.70
2022-10-17T14:57:44.747Z,18.70
2022-10-17T15:00:17.233Z,18.70
2022-10-17T15:02:44.963Z,18.70
2022-10-17T15:05:13.439Z,18.70
2022-10-17T15:07:41.673Z,18.70
2022-10-17T15:10:27.344Z,18.70
2022-10-17T15:12:59.920Z,18.70
2022-10-17T15:15:38.190Z,18.70
2022-10-17T15:18:05.741Z,18.70
2022-10-17T15:20:33.823Z,18.60
2022-10-17T15:23:02.448Z,18.60
2022-10-17T15:25:31.398Z,18.60
2022-10-17T15:27:58.965Z,18.60
2022-10-17T15:30:27.183Z,18.60
2022-10-17T15:32:54.617Z,18.60
2022-10-17T15:35:22.388Z,18.60
2022-10-17T15:37:49.861Z,18.60
2022-10-17T15:40:18.590Z,18.60
2022-10-17T15:42:45.435Z,18.60
2022-10-17T15:45:15.493Z,18.60
2022-10-17T15:47:44.126Z,18.60
2022-10-17T15:50:15.210Z,18.50
2022-10-17T15:52:42.386Z,18.50
2022-10-17T15:55:10.726Z,18.50
2022-10-17T15:57:41.027Z,18.50
2022-10-17T16:00:16.780Z,18.50
2022-10-17T16:02:44.227Z,18.50
2022-10-17T16:05:29.246Z,18.50
2022-10-17T16:07:57.807Z,18.50
2022-10-17T16:10:28.264Z,18.50
2022-10-17T16:12:55.367Z,18.50
2022-10-17T16:15:28.115Z,18.50
2022-10-17T16:17:57.106Z,18.50
2022-10-17T16:20:25.431Z,18.50
2022-10-17T16:22:59.669Z,18.50
2022-10-17T16:25:28.491Z,18.50
2022-10-17T16:27:57.950Z,18.50
2022-10-17T16:30:26.711Z,18.40
2022-10-17T16:32:55.087Z,18.40
2022-10-17T16:35:31.870Z,18.40
2022-10-17T16:38:01.851Z,18.40
2022-10-17T16:40:28.672Z,18.40
2022-10-17T16:42:55.527Z,18.40
2022-10-17T16:45:23.338Z,18.40
2022-10-17T16:47:50.782Z,18.40
2022-10-17T16:50:18.214Z,18.40
2022-10-17T16:52:45.088Z,18.40
2022-10-17T16:55:11.932Z,18.40
2022-10-17T16:57:38.817Z,18.40
2022-10-17T17:00:07.146Z,18.40
2022-10-17T17:02:34.243Z,18.40
2022-10-17T17:05:01.292Z,18.40
2022-10-17T17:07:29.669Z,18.40
2022-10-17T17:09:56.866Z,18.40
2022-10-17T17:12:23.802Z,18.40
2022-10-17T17:14:50.862Z,18.40
2022-10-17T17:17:30.355Z,18.30
2022-10-17T17:20:06.485Z,18.30
2022-10-17T17:22:33.264Z,18.30
2022-10-17T17:25:00.095Z,18.30
2022-10-17T17:27:30.354Z,18.30
2022-10-17T17:29:57.406Z,18.30
2022-10-17T17:32:24.180Z,18.30
2022-10-17T17:34:51.054Z,18.30
2022-10-17T17:37:18.019Z,18.30
2022-10-17T17:39:44.902Z,18.30
2022-10-17T17:42:11.714Z,18.30
2022-10-17T17:44:38.500Z,18.20
2022-10-17T17:47:05.392Z,18.30
2022-10-17T17:49:32.215Z,18.20
2022-10-17T17:51:59.040Z,18.20
2022-10-17T17:54:25.885Z,18.20
2022-10-17T17:56:52.739Z,18.20
2022-10-17T17:59:19.548Z,18.20
2022-10-17T18:01:46.476Z,18.20
2022-10-17T18:04:13.475Z,18.20
2022-10-17T18:06:40.339Z,18.10
2022-10-17T18:09:07.958Z,18.20
2022-10-17T18:11:35.734Z,18.20
2022-10-17T18:14:05.717Z,18.20
2022-10-17T18:16:34.784Z,18.20
2022-10-17T18:19:06.760Z,18.20
2022-10-17T18:21:34.354Z,18.30
2022-10-17T18:24:02.032Z,18.30
2022-10-17T18:26:28.865Z,18.30
2022-10-17T18:28:56.638Z,18.30
2022-10-17T18:31:28.499Z,18.30
2022-10-17T18:33:57.778Z,18.30
2022-10-17T18:36:26.276Z,18.30
2022-10-17T18:38:54.196Z,18.30
2022-10-17T18:41:24.875Z,18.30
2022-10-17T18:43:53.439Z,18.30
2022-10-17T18:46:22.546Z,18.30
2022-10-17T18:48:50.366Z,18.30
2022-10-17T18:51:19.389Z,18.40
2022-10-17T18:53:48.954Z,18.40
2022-10-17T18:56:16.559Z,18.40
2022-10-17T18:58:43.452Z,18.40
2022-10-17T19:01:19.705Z,18.40
2022-10-17T19:03:48.481Z,18.40
2022-10-17T19:06:17.219Z,18.40
2022-10-17T19:08:44.956Z,18.40
2022-10-17T19:11:17.389Z,18.40
2022-10-17T19:16:15.967Z,18.40
2022-10-17T19:18:43.772Z,18.40
2022-10-17T19:21:11.786Z,18.40
2022-10-17T19:23:39.063Z,18.40
2022-10-17T19:26:12.931Z,18.40
2022-10-17T19:28:44.331Z,18.40
2022-10-17T19:31:15.315Z,18.40
2022-10-17T19:33:44.451Z,18.40
2022-10-17T19:36:13.024Z,18.40
2022-10-17T19:38:40.096Z,18.30
2022-10-17T19:41:12.086Z,18.40
2022-10-17T19:43:40.549Z,18.40
2022-10-17T19:46:24.840Z,18.40
2022-10-17T19:48:52.284Z,18.30
2022-10-17T19:51:20.762Z,18.40
2022-10-17T19:53:48.021Z,18.30
2022-10-17T19:56:18.630Z,18.40
2022-10-17T19:58:47.046Z,18.40
2022-10-17T20:01:19.714Z,18.30
2022-10-17T20:03:46.705Z,18.30
2022-10-17T20:06:13.828Z,18.30
2022-10-17T20:08:42.050Z,18.30
2022-10-17T20:11:12.494Z,18.30
2022-10-17T20:13:40.024Z,18.30
2022-10-17T20:16:09.032Z,18.30
2022-10-17T20:18:35.947Z,18.30
2022-10-17T20:21:09.224Z,18.30
2022-10-17T20:23:36.719Z,18.30
2022-10-17T20:26:08.671Z,18.30
2022-10-17T20:28:46.039Z,18.30
2022-10-17T20:31:13.870Z,18.30
2022-10-17T20:33:41.622Z,18.20
2022-10-17T20:36:10.833Z,18.20
2022-10-17T20:38:38.016Z,18.20
2022-10-17T20:41:07.480Z,18.20
2022-10-17T20:43:35.534Z,18.20
2022-10-17T20:46:15.506Z,18.20
2022-10-17T20:48:58.127Z,18.20
2022-10-17T20:51:26.429Z,18.20
2022-10-17T20:53:53.599Z,18.10
2022-10-17T20:56:23.016Z,18.20
2022-10-17T20:59:07.118Z,18.10
2022-10-17T21:01:35.654Z,18.20
2022-10-17T21:04:27.049Z,18.20
2022-10-17T21:06:52.243Z,18.20
2022-10-17T21:09:19.854Z,18.20
2022-10-17T21:11:48.377Z,18.20
2022-10-17T21:14:16.805Z,18.10
2022-10-17T21:16:44.007Z,18.10
2022-10-17T21:19:12.307Z,18.10
2022-10-17T21:21:41.391Z,18.10
2022-10-17T21:24:14.621Z,18.10
2022-10-17T21:26:42.799Z,18.10
2022-10-17T21:29:11.688Z,18.10
2022-10-17T21:31:40.584Z,18.10
2022-10-17T21:34:12.135Z,18.10
2022-10-17T21:36:39.252Z,18.00
2022-10-17T21:41:53.425Z,18.10
2022-10-17T21:44:23.270Z,18.10
2022-10-17T21:46:50.726Z,18.10
2022-10-17T21:49:19.960Z,18.00
2022-10-17T21:51:47.829Z,18.10
2022-10-17T21:54:15.233Z,18.00
2022-10-17T21:56:42.234Z,18.10
2022-10-17T21:59:09.591Z,18.10
2022-10-17T22:01:39.799Z,18.00
2022-10-17T22:04:10.182Z,18.10
2022-10-17T22:06:40.333Z,18.10
2022-10-17T22:09:12.942Z,18.10
2022-10-17T22:11:40.066Z,18.10
2022-10-17T22:14:11.343Z,18.10
2022-10-17T22:16:38.906Z,18.10
2022-10-17T22:19:07.075Z,18.10
2022-10-17T22:21:35.894Z,18.10
2022-10-17T22:24:06.986Z,18.10
2022-10-17T22:26:35.874Z,18.10
2022-10-17T22:29:03.769Z,18.10
2022-10-17T22:31:30.596Z,18.10
2022-10-17T22:33:57.475Z,18.10
2022-10-17T22:36:24.321Z,18.00
2022-10-17T22:38:51.142Z,18.00
2022-10-17T22:41:17.976Z,18.10
2022-10-17T22:43:44.751Z,18.10
2022-10-17T22:46:13.539Z,18.10
2022-10-17T22:48:40.432Z,18.00
2022-10-17T22:51:07.412Z,18.00
2022-10-17T22:53:35.248Z,18.00
2022-10-17T22:56:08.157Z,18.00
2022-10-17T22:58:35.738Z,18.00
2022-10-17T23:01:04.400Z,18.00
2022-10-17T23:03:31.747Z,18.00
2022-10-17T23:05:59.031Z,18.00
2022-10-17T23:08:26.681Z,18.00
2022-10-17T23:10:53.871Z,18.00
2022-10-17T23:13:22.040Z,18.00
2022-10-17T23:15:53.808Z,18.00
2022-10-17T23:18:21.777Z,17.90
2022-10-17T23:20:48.922Z,17.90
2022-10-17T23:23:16.548Z,17.90
2022-10-17T23:25:43.388Z,17.90
2022-10-17T23:28:10.945Z,17.90
2022-10-17T23:30:39.138Z,17.90
2022-10-17T23:33:06.868Z,17.90
2022-10-17T23:35:34.336Z,17.90
2022-10-17T23:38:01.143Z,17.90
2022-10-17T23:40:28.233Z,17.90
2022-10-17T23:42:55.043Z,17.90
2022-10-17T23:45:22.152Z,17.90
2022-10-17T23:47:49.030Z,17.90
2022-10-17T23:50:16.463Z,17.90
2022-10-17T23:52:43.565Z,17.90
2022-10-17T23:55:11.062Z,17.90
2022-10-17T23:57:37.907Z,17.90
